This is the latest recevied weather packets stored in our database for station/object KR4ELZ. If no packets are shown the sender has not sent any weather packets the latest 10 day(s).
| Time | Temp. | Humidity | Pressure | Rain* | Wind** | Luminosity | Snow |
|---|---|---|---|---|---|---|---|
| 1777957529 | 15.56° C | 75% | 1011.3 hPa | 0 mm | - | 0 W/m² | - |
| 1777956923 | 15.56° C | 74% | 1011.4 hPa | 0 mm | - | 0 W/m² | - |
| 1777956620 | 15.56° C | 74% | 1011.5 hPa | 0 mm | - | 0 W/m² | - |
| 1777956318 | 16.11° C | 73% | 1011.4 hPa | 0 mm | - | 0 W/m² | - |
| 1777956014 | 16.11° C | 72% | 1011.3 hPa | 0 mm | - | 0 W/m² | - |
| 1777955710 | 16.11° C | 72% | 1011.2 hPa | 0 mm | - | 0 W/m² | - |
| 1777955407 | 16.67° C | 70% | 1011.2 hPa | 0 mm | - | 0 W/m² | - |
| 1777955103 | 16.67° C | 69% | 1011 hPa | 0 mm | - | 0 W/m² | - |
| 1777954801 | 16.67° C | 69% | 1011.2 hPa | 0 mm | - | 0 W/m² | - |
| 1777954497 | 16.67° C | 70% | 1010.9 hPa | 0 mm | - | 0 W/m² | - |
| 1777954194 | 16.67° C | 71% | 1011 hPa | 0 mm | - | 0 W/m² | - |
| 1777953892 | 16.67° C | 70% | 1011.1 hPa | 0 mm | - | 0 W/m² | - |
| 1777953589 | 16.67° C | 71% | 1011.1 hPa | 0 mm | - | 0 W/m² | - |
| 1777937523 | 25.56° C | 42% | 1010.3 hPa | 0 mm | - | 54 W/m² | - |
| 1777936917 | 26.11° C | 41% | 1010.5 hPa | 0 mm | - | 68 W/m² | - |
| 1777936614 | 26.11° C | 41% | 1010.6 hPa | 0 mm | - | 66 W/m² | - |
| 1777934190 | 26.67° C | 41% | 1010.4 hPa | 0 mm | - | 156 W/m² | - |
| 1777932977 | 27.22° C | 39% | 1010.2 hPa | 0 mm | - | 207 W/m² | - |
| 1777932674 | 26.67° C | 39% | 1010.4 hPa | 0 mm | - | 221 W/m² | - |
| 1777926008 | 27.22° C | 42% | 1011.3 hPa | 0 mm | - | 222 W/m² | - |
| 1777923580 | 27.22° C | 39% | 1011.8 hPa | 0 mm | - | 598 W/m² | - |
| 1777922673 | 26.67° C | 40% | 1011.9 hPa | 0 mm | - | 322 W/m² | - |
| 1777922372 | 27.22° C | 39% | 1012.1 hPa | 0 mm | - | 575 W/m² | - |
| 1777919942 | 26.67° C | 43% | 1012.2 hPa | 0 mm | - | 147 W/m² | - |
| 1777919640 | 26.11° C | 45% | 1012.2 hPa | 0 mm | - | 194 W/m² | - |
* Rain latest hour (hover to see other rain measurements)
** Current wind speed in m/s (hover to see current wind gust speed)